Rockaway, Oregon
Current Conditions -  °F | °C
As of 9:35 PM on Thursday 27 Nov 2014 (Local Time) from KTMK Reporting Station
Drizzle Drizzle  
Wind Chill: 55°   Ceiling: 1800
Heat Index: 55°   Visibility: 4mi
Dew Point: 54°   Wind: 5mph
Humidity: 94%   Direction: 160°SSE
Pressure: 29.84"   Gusts: NA
Location:  45.6132°N, 123.654°W
Report Text: KTMK 280535Z AUTO 16004KT 4SM DZ BKN018 OVC023 13/12 A2984 RMK AO2
Loading
Personal Weather Stations






























Interactive Weather Map New forecast layout! Learn more

10-Day Weather Forecast

Advertisements
Track Severe Weather on mobile